Terminal Aerodrome Forecast
Issued by NWS Pendleton, OR

Home | Current Version | Previous Version | Text Only | Print | Product List | Glossary On
Versions: 1 2 3 4 5 6 7 8 9 10 11 12 13 14
000
FTUS46 KPDT 040530
TAFPDT
TAF
KPDT 040530Z 0406/0506 17006KT P6SM SKC
     FM041200 15006KT P6SM SCT150
     FM041800 33009KT P6SM BKN100
     FM050300 26011KT P6SM -SHRA OVC080=

USA.gov is the U.S. government's official web portal to all federal, state and local government web resources and services.